Douglas, Georgia
Current Conditions -  °F | °C
As of 7:15 AM on Saturday 20 Dec 2014 (Local Time) from KDQH Reporting Station
Drizzle Drizzle  
Wind Chill: 52°   Ceiling: 7500
Heat Index: 52°   Visibility: 10mi
Dew Point: 50°   Wind: 3mph
Humidity: 94%   Direction: 90°E
Pressure: 30.14"   Gusts: NA
Location:  31.51°N, 82.85°W
Report Text: KDQH 201215Z AUTO 09003KT 10SM -DZ OVC075 11/10 A3014 RMK AO2
Loading
Personal Weather Stations






























Interactive Weather Map New forecast layout! Learn more

10-Day Weather Forecast

Advertisements
Track Severe Weather on mobile